createdAt,value
2023-05-09T00:00:44.591Z,9.43
2023-05-09T00:03:12.705Z,10.02
2023-05-09T00:05:39.303Z,11.05
2023-05-09T00:08:05.882Z,8.52
2023-05-09T00:10:32.417Z,9.35
2023-05-09T00:12:59.682Z,10.48
2023-05-09T00:15:26.617Z,11.52
2023-05-09T00:17:53.008Z,10.57
2023-05-09T00:20:20.019Z,10.73
2023-05-09T00:22:46.364Z,9.90
2023-05-09T00:25:12.983Z,12.45
2023-05-09T00:27:39.627Z,12.60
2023-05-09T00:30:06.655Z,15.32
2023-05-09T00:32:34.197Z,10.13
2023-05-09T00:35:00.667Z,12.55
2023-05-09T00:37:30.460Z,11.30
2023-05-09T00:39:56.791Z,11.35
2023-05-09T00:42:23.108Z,10.80
2023-05-09T00:44:49.456Z,10.88
2023-05-09T00:47:15.809Z,12.75
2023-05-09T00:49:42.688Z,10.52
2023-05-09T00:52:09.451Z,12.40
2023-05-09T00:54:35.844Z,10.35
2023-05-09T00:57:02.196Z,12.55
2023-05-09T00:59:28.565Z,14.40
2023-05-09T01:01:54.957Z,11.82
2023-05-09T01:04:21.535Z,10.65
2023-05-09T01:07:15.063Z,12.02
2023-05-09T01:12:31.072Z,11.90
2023-05-09T01:15:01.158Z,11.35
2023-05-09T01:17:58.591Z,12.07
2023-05-09T01:21:00.441Z,9.65
2023-05-09T01:23:45.185Z,9.68
2023-05-09T01:26:17.530Z,8.90
2023-05-09T01:29:01.511Z,22.67
2023-05-09T01:31:28.713Z,10.45
2023-05-09T01:33:59.687Z,10.77
2023-05-09T01:36:29.938Z,10.60
2023-05-09T01:38:58.360Z,9.77
2023-05-09T01:41:26.751Z,11.25
2023-05-09T01:43:55.997Z,9.13
2023-05-09T01:46:25.431Z,11.13
2023-05-09T01:48:52.716Z,10.80
2023-05-09T01:51:20.493Z,10.77
2023-05-09T01:53:48.411Z,10.27
2023-05-09T01:56:16.081Z,11.02
2023-05-09T01:58:43.773Z,10.25
2023-05-09T02:01:10.624Z,10.07
2023-05-09T02:03:38.594Z,13.00
2023-05-09T02:06:05.598Z,13.20
2023-05-09T02:08:33.296Z,8.90
2023-05-09T02:10:59.684Z,10.02
2023-05-09T02:13:26.119Z,8.98
2023-05-09T02:15:53.744Z,10.55
2023-05-09T02:18:20.075Z,9.75
2023-05-09T02:20:47.312Z,9.43
2023-05-09T02:23:13.891Z,9.77
2023-05-09T02:25:40.968Z,9.93
2023-05-09T02:28:10.160Z,9.30
2023-05-09T02:30:41.878Z,11.50
2023-05-09T02:33:11.645Z,9.68
2023-05-09T02:35:42.213Z,8.70
2023-05-09T02:38:08.786Z,10.13
2023-05-09T02:40:36.206Z,11.95
2023-05-09T02:43:02.761Z,10.38
2023-05-09T02:45:29.127Z,8.48
2023-05-09T02:47:55.610Z,8.63
2023-05-09T02:50:21.975Z,9.60
2023-05-09T02:52:48.413Z,9.80
2023-05-09T02:55:15.240Z,13.45
2023-05-09T02:57:41.850Z,11.35
2023-05-09T03:00:09.596Z,9.00
2023-05-09T03:02:37.011Z,10.57
2023-05-09T03:05:03.768Z,10.18
2023-05-09T03:07:30.744Z,9.18
2023-05-09T03:09:57.209Z,11.05
2023-05-09T03:12:23.834Z,11.35
2023-05-09T03:14:50.186Z,10.93
2023-05-09T03:17:21.001Z,10.60
2023-05-09T03:19:48.389Z,9.90
2023-05-09T03:22:15.170Z,11.43
2023-05-09T03:24:41.529Z,9.98
2023-05-09T03:27:07.849Z,10.45
2023-05-09T03:29:34.157Z,9.70
2023-05-09T03:32:00.735Z,10.02
2023-05-09T03:34:27.046Z,10.30
2023-05-09T03:36:53.367Z,9.27
2023-05-09T03:39:19.676Z,10.50
2023-05-09T03:41:46.021Z,10.88
2023-05-09T03:44:12.435Z,10.43
2023-05-09T03:46:38.834Z,12.93
2023-05-09T03:49:05.232Z,14.52
2023-05-09T03:51:32.367Z,10.60
2023-05-09T03:53:58.798Z,10.65
2023-05-09T03:56:25.762Z,10.90
2023-05-09T03:58:52.118Z,11.43
2023-05-09T04:01:18.485Z,10.75
2023-05-09T04:03:44.977Z,12.43
2023-05-09T04:06:12.562Z,10.00
2023-05-09T04:08:39.007Z,9.90
2023-05-09T04:11:05.985Z,10.65
2023-05-09T04:13:33.730Z,9.68
2023-05-09T04:16:00.056Z,12.30
2023-05-09T04:18:26.365Z,12.75
2023-05-09T04:20:53.378Z,9.93
2023-05-09T04:23:19.751Z,11.27
2023-05-09T04:25:46.406Z,10.13
2023-05-09T04:28:12.735Z,12.93
2023-05-09T04:30:39.072Z,10.98
2023-05-09T04:33:05.488Z,10.57
2023-05-09T04:35:31.884Z,12.25
2023-05-09T04:37:58.163Z,9.77
2023-05-09T04:40:26.244Z,10.48
2023-05-09T04:42:53.534Z,10.98
2023-05-09T04:45:20.039Z,10.10
2023-05-09T04:47:46.377Z,8.73
2023-05-09T04:50:12.949Z,9.75
2023-05-09T04:52:39.272Z,9.82
2023-05-09T04:55:06.151Z,10.48
2023-05-09T04:57:32.438Z,15.38
2023-05-09T04:59:58.749Z,10.23
2023-05-09T05:02:25.262Z,11.75
2023-05-09T05:04:52.873Z,21.20
2023-05-09T05:07:21.135Z,13.93
2023-05-09T05:09:47.436Z,13.57
2023-05-09T05:12:13.835Z,10.35
2023-05-09T05:14:40.188Z,12.65
2023-05-09T05:17:06.621Z,10.77
2023-05-09T05:19:33.006Z,10.80
2023-05-09T05:21:59.434Z,13.10
2023-05-09T05:24:25.785Z,10.93
2023-05-09T05:26:52.077Z,11.13
2023-05-09T05:29:18.425Z,11.88
2023-05-09T05:31:44.830Z,11.82
2023-05-09T05:34:11.274Z,10.95
2023-05-09T05:36:37.660Z,11.15
2023-05-09T05:39:04.331Z,11.00
2023-05-09T05:41:31.001Z,10.50
2023-05-09T05:43:57.342Z,12.73
2023-05-09T05:46:23.773Z,10.90
2023-05-09T05:48:50.126Z,11.88
2023-05-09T05:51:16.481Z,12.38
2023-05-09T05:53:43.180Z,10.90
2023-05-09T05:56:09.584Z,12.82
2023-05-09T05:58:35.960Z,11.55
2023-05-09T06:01:02.402Z,14.27
2023-05-09T06:03:28.798Z,11.05
2023-05-09T06:05:55.861Z,13.32
2023-05-09T06:08:22.206Z,14.27
2023-05-09T06:10:48.580Z,12.90
2023-05-09T06:13:15.122Z,13.50
2023-05-09T06:15:41.853Z,11.80
2023-05-09T06:18:09.079Z,15.82
2023-05-09T06:20:36.142Z,10.90
2023-05-09T06:23:02.633Z,13.02
2023-05-09T06:25:29.109Z,12.23
2023-05-09T06:27:55.628Z,13.73
2023-05-09T06:30:26.282Z,13.93
2023-05-09T06:32:54.952Z,12.52
2023-05-09T06:35:21.841Z,12.07
2023-05-09T06:37:49.118Z,13.40
2023-05-09T06:40:16.382Z,14.80
2023-05-09T06:42:43.068Z,16.88
2023-05-09T06:45:19.149Z,13.15
2023-05-09T06:47:46.031Z,14.45
2023-05-09T06:50:12.605Z,13.30
2023-05-09T06:52:39.139Z,14.48
2023-05-09T06:55:06.317Z,13.45
2023-05-09T06:57:33.006Z,16.27
2023-05-09T06:59:59.516Z,14.32
2023-05-09T07:02:26.115Z,12.65
2023-05-09T07:04:54.323Z,13.13
2023-05-09T07:07:20.975Z,13.07
2023-05-09T07:09:49.235Z,14.57
2023-05-09T07:12:17.407Z,16.30
2023-05-09T07:14:43.854Z,14.63
2023-05-09T07:17:22.026Z,15.02
2023-05-09T07:19:49.901Z,16.88
2023-05-09T07:22:16.532Z,14.45
2023-05-09T07:24:44.576Z,14.35
2023-05-09T07:27:11.050Z,18.25
2023-05-09T07:29:37.553Z,15.50
2023-05-09T07:32:04.280Z,13.70
2023-05-09T07:34:30.810Z,13.93
2023-05-09T07:36:58.712Z,14.82
2023-05-09T07:39:25.354Z,13.73
2023-05-09T07:41:51.903Z,14.93
2023-05-09T07:44:18.403Z,15.15
2023-05-09T07:46:44.812Z,18.30
2023-05-09T07:49:11.322Z,14.50
2023-05-09T07:51:37.759Z,16.30
2023-05-09T07:54:04.296Z,16.42
2023-05-09T07:56:30.803Z,17.45
2023-05-09T07:58:57.315Z,15.15
2023-05-09T08:01:24.001Z,16.40
2023-05-09T08:03:50.785Z,16.13
2023-05-09T08:06:17.499Z,16.85
2023-05-09T08:08:44.014Z,15.18
2023-05-09T08:11:10.676Z,18.35
2023-05-09T08:13:37.259Z,14.90
2023-05-09T08:16:04.091Z,16.27
2023-05-09T08:18:30.716Z,15.98
2023-05-09T08:20:59.603Z,16.67
2023-05-09T08:23:26.664Z,15.20
2023-05-09T08:25:54.527Z,15.73
2023-05-09T08:28:24.167Z,17.48
2023-05-09T08:30:51.722Z,14.18
2023-05-09T08:33:18.341Z,15.45
2023-05-09T08:35:44.928Z,18.42
2023-05-09T08:38:11.508Z,19.17
2023-05-09T08:40:38.076Z,15.70
2023-05-09T08:43:07.931Z,16.92
2023-05-09T08:46:06.872Z,17.55
2023-05-09T08:48:37.577Z,16.10
2023-05-09T08:51:07.756Z,19.00
2023-05-09T08:53:34.517Z,16.98
2023-05-09T08:56:02.819Z,18.17
2023-05-09T08:58:30.531Z,16.85
2023-05-09T09:00:58.011Z,17.15
2023-05-09T09:03:26.265Z,16.92
2023-05-09T09:05:54.885Z,17.00
2023-05-09T09:08:23.548Z,16.52
2023-05-09T09:10:50.143Z,17.23
2023-05-09T09:13:18.061Z,17.38
2023-05-09T09:15:46.852Z,16.08
2023-05-09T09:18:21.018Z,17.13
2023-05-09T09:20:56.463Z,17.73
2023-05-09T09:23:25.385Z,16.92
2023-05-09T09:26:18.140Z,15.70
2023-05-09T09:28:44.670Z,16.67
2023-05-09T09:31:25.496Z,14.60
2023-05-09T09:33:52.188Z,15.38
2023-05-09T09:36:28.530Z,16.73
2023-05-09T09:39:04.801Z,15.82
2023-05-09T09:41:36.182Z,15.63
2023-05-09T09:44:10.412Z,15.45
2023-05-09T09:46:52.930Z,15.40
2023-05-09T09:49:25.839Z,17.08
2023-05-09T09:54:20.097Z,13.48
2023-05-09T09:56:53.206Z,13.55
2023-05-09T09:59:21.736Z,14.98
2023-05-09T10:02:06.100Z,14.27
2023-05-09T10:04:36.103Z,14.35
2023-05-09T10:07:05.863Z,14.20
2023-05-09T10:09:35.825Z,13.20
2023-05-09T10:12:04.788Z,12.95
2023-05-09T10:14:35.103Z,13.23
2023-05-09T10:17:03.836Z,13.45
2023-05-09T10:19:31.901Z,13.10
2023-05-09T10:22:05.228Z,14.60
2023-05-09T10:24:40.243Z,13.07
2023-05-09T10:27:11.078Z,13.02
2023-05-09T10:29:54.677Z,15.57
2023-05-09T10:32:31.594Z,14.27
2023-05-09T10:35:04.531Z,14.32
2023-05-09T10:40:02.900Z,15.80
2023-05-09T10:42:30.612Z,13.57
2023-05-09T10:44:57.988Z,13.40
2023-05-09T10:47:28.933Z,14.00
2023-05-09T10:49:56.123Z,13.93
2023-05-09T10:52:22.889Z,14.00
2023-05-09T10:55:01.812Z,13.40
2023-05-09T10:57:30.043Z,14.18
2023-05-09T10:59:57.629Z,12.88
2023-05-09T11:02:31.104Z,14.82
2023-05-09T11:05:14.645Z,14.45
2023-05-09T11:07:41.472Z,15.98
2023-05-09T11:10:17.683Z,15.05
2023-05-09T11:12:57.686Z,14.25
2023-05-09T11:15:26.477Z,13.40
2023-05-09T11:18:10.491Z,14.27
2023-05-09T11:20:43.509Z,14.98
2023-05-09T11:23:12.886Z,14.88
2023-05-09T11:25:39.785Z,14.95
2023-05-09T11:28:06.391Z,16.67
2023-05-09T11:30:40.346Z,13.80
2023-05-09T11:33:21.055Z,14.95
2023-05-09T11:35:47.555Z,14.45
2023-05-09T11:38:21.438Z,14.55
2023-05-09T11:40:48.450Z,13.43
2023-05-09T11:43:15.488Z,13.15
2023-05-09T11:45:42.206Z,13.30
2023-05-09T11:48:09.426Z,14.32
2023-05-09T11:50:35.974Z,12.93
2023-05-09T11:53:02.486Z,11.68
2023-05-09T11:55:30.567Z,11.70
2023-05-09T11:57:57.227Z,13.05
2023-05-09T12:00:25.152Z,11.10
2023-05-09T12:02:53.124Z,9.50
2023-05-09T12:05:21.638Z,10.40
2023-05-09T12:07:48.769Z,10.07
2023-05-09T12:10:17.137Z,9.40
2023-05-09T12:12:58.097Z,9.75
2023-05-09T12:15:24.749Z,9.57
2023-05-09T12:18:02.925Z,8.88
2023-05-09T12:20:40.561Z,9.15
2023-05-09T12:23:07.072Z,8.32
2023-05-09T12:25:33.490Z,7.65
2023-05-09T12:27:59.953Z,8.85
2023-05-09T12:30:26.359Z,8.90
2023-05-09T12:32:52.878Z,7.57
2023-05-09T12:35:22.662Z,8.30
2023-05-09T12:37:57.729Z,7.90
2023-05-09T12:40:24.491Z,8.15
2023-05-09T12:42:53.646Z,9.10
2023-05-09T12:45:20.251Z,10.45
2023-05-09T12:47:51.914Z,9.88
2023-05-09T12:50:19.080Z,9.68
2023-05-09T12:53:01.942Z,9.90
2023-05-09T12:55:30.302Z,9.35
2023-05-09T12:58:02.604Z,10.02
2023-05-09T13:00:29.605Z,10.52
2023-05-09T13:02:56.213Z,11.00
2023-05-09T13:05:23.376Z,11.15
2023-05-09T13:07:56.865Z,12.05
2023-05-09T13:10:25.075Z,11.60
2023-05-09T13:12:52.701Z,12.85
2023-05-09T13:15:21.544Z,10.95
2023-05-09T13:17:49.479Z,10.70
2023-05-09T13:20:17.142Z,10.43
2023-05-09T13:22:44.894Z,10.65
2023-05-09T13:25:12.025Z,10.30
2023-05-09T13:27:38.593Z,11.13
2023-05-09T13:30:07.591Z,12.18
2023-05-09T13:32:34.690Z,10.88
2023-05-09T13:35:01.071Z,11.80
2023-05-09T13:37:28.070Z,14.82
2023-05-09T13:39:55.580Z,12.20
2023-05-09T13:42:21.960Z,15.10
2023-05-09T13:44:48.313Z,16.40
2023-05-09T13:47:14.638Z,10.85
2023-05-09T13:49:40.966Z,12.75
2023-05-09T13:52:08.169Z,11.05
2023-05-09T13:54:35.098Z,10.88
2023-05-09T13:57:04.982Z,10.18
2023-05-09T13:59:32.218Z,9.48
2023-05-09T14:01:59.985Z,8.65
2023-05-09T14:04:31.770Z,9.05
2023-05-09T14:06:59.767Z,9.45
2023-05-09T14:09:26.923Z,8.40
2023-05-09T14:11:53.913Z,8.85
2023-05-09T14:14:21.927Z,10.27
2023-05-09T14:16:48.450Z,9.13
2023-05-09T14:19:15.759Z,9.35
2023-05-09T14:21:43.020Z,8.88
2023-05-09T14:24:10.250Z,9.13
2023-05-09T14:26:36.608Z,8.73
2023-05-09T14:29:04.155Z,9.25
2023-05-09T14:31:30.656Z,9.00
2023-05-09T14:33:57.349Z,8.00
2023-05-09T14:36:23.964Z,8.80
2023-05-09T14:38:50.283Z,8.93
2023-05-09T14:41:16.610Z,8.15
2023-05-09T14:43:42.959Z,7.50
2023-05-09T14:46:09.296Z,6.75
2023-05-09T14:48:35.699Z,8.85
2023-05-09T14:51:02.124Z,6.68
2023-05-09T14:53:28.973Z,6.07
2023-05-09T14:55:55.960Z,7.25
2023-05-09T14:58:22.999Z,5.88
2023-05-09T15:00:49.512Z,5.97
2023-05-09T15:03:15.858Z,6.55
2023-05-09T15:05:42.237Z,5.63
2023-05-09T15:08:08.606Z,10.02
2023-05-09T15:10:35.051Z,6.68
2023-05-09T15:13:05.479Z,7.75
2023-05-09T15:15:32.171Z,5.65
2023-05-09T15:17:58.753Z,8.13
2023-05-09T15:20:25.074Z,5.70
2023-05-09T15:22:51.509Z,5.90
2023-05-09T15:25:17.894Z,6.93
2023-05-09T15:27:44.446Z,7.45
2023-05-09T15:30:11.689Z,7.15
2023-05-09T15:32:40.654Z,8.82
2023-05-09T15:35:08.201Z,8.30
2023-05-09T15:37:35.850Z,8.93
2023-05-09T15:40:02.729Z,9.30
2023-05-09T15:42:29.072Z,8.43
2023-05-09T15:44:55.382Z,7.90
2023-05-09T15:47:21.983Z,9.48
2023-05-09T15:49:48.315Z,9.40
2023-05-09T15:52:14.763Z,9.05
2023-05-09T15:54:41.234Z,8.43
2023-05-09T15:57:08.067Z,9.35
2023-05-09T15:59:34.370Z,7.90
2023-05-09T16:02:00.754Z,7.32
2023-05-09T16:04:27.347Z,10.73
2023-05-09T16:06:55.286Z,7.45
2023-05-09T16:09:21.662Z,7.95
2023-05-09T16:11:48.175Z,6.55
2023-05-09T16:14:14.720Z,8.70
2023-05-09T16:16:42.634Z,6.57
2023-05-09T16:19:09.738Z,6.80
2023-05-09T16:21:37.703Z,6.22
2023-05-09T16:24:04.910Z,6.47
2023-05-09T16:26:31.474Z,5.10
2023-05-09T16:29:01.001Z,5.03
2023-05-09T16:31:28.045Z,4.82
2023-05-09T16:33:54.587Z,7.00
2023-05-09T16:36:22.143Z,7.18
2023-05-09T16:38:48.811Z,7.00
2023-05-09T16:41:15.903Z,5.88
2023-05-09T16:43:42.715Z,6.18
2023-05-09T16:46:09.326Z,6.40
2023-05-09T16:48:35.960Z,6.47
2023-05-09T16:51:02.385Z,6.00
2023-05-09T16:53:29.106Z,6.57
2023-05-09T16:55:55.551Z,8.93
2023-05-09T16:58:22.010Z,5.80
2023-05-09T17:00:50.429Z,6.47
2023-05-09T17:03:16.982Z,7.78
2023-05-09T17:05:43.356Z,7.25
2023-05-09T17:08:09.804Z,6.50
2023-05-09T17:10:37.805Z,6.70
2023-05-09T17:13:08.424Z,6.93
2023-05-09T17:15:34.919Z,9.00
2023-05-09T17:18:01.827Z,9.10
2023-05-09T17:20:28.879Z,8.77
2023-05-09T17:22:56.268Z,8.18
2023-05-09T17:25:23.336Z,9.18
2023-05-09T17:27:49.788Z,8.82
2023-05-09T17:30:16.599Z,8.35
2023-05-09T17:32:43.333Z,10.02
2023-05-09T17:35:09.983Z,8.68
2023-05-09T17:37:36.399Z,9.88
2023-05-09T17:40:04.994Z,11.00
2023-05-09T17:42:31.536Z,8.27
2023-05-09T17:44:57.945Z,9.80
2023-05-09T17:47:24.347Z,8.35
2023-05-09T17:49:50.761Z,10.07
2023-05-09T17:52:17.239Z,8.90
2023-05-09T17:54:43.805Z,9.77
2023-05-09T17:57:10.357Z,10.43
2023-05-09T17:59:40.314Z,10.80
2023-05-09T18:02:07.943Z,10.40
2023-05-09T18:04:34.635Z,9.50
2023-05-09T18:07:01.194Z,9.95
2023-05-09T18:09:28.029Z,13.07
2023-05-09T18:11:54.468Z,11.02
2023-05-09T18:14:27.195Z,11.23
2023-05-09T18:16:53.748Z,18.38
2023-05-09T18:19:20.275Z,14.68
2023-05-09T18:21:47.126Z,10.00
2023-05-09T18:24:16.244Z,10.88
2023-05-09T18:26:43.452Z,9.70
2023-05-09T18:29:10.013Z,9.90
2023-05-09T18:31:38.773Z,10.60
2023-05-09T18:34:05.904Z,9.57
2023-05-09T18:36:32.625Z,7.65
2023-05-09T18:38:59.510Z,5.93
2023-05-09T18:41:26.635Z,6.18
2023-05-09T18:43:53.240Z,5.90
2023-05-09T18:46:22.337Z,6.68
2023-05-09T18:48:51.790Z,7.13
2023-05-09T18:51:19.010Z,7.72
2023-05-09T18:53:47.248Z,8.77
2023-05-09T18:56:14.378Z,9.13
2023-05-09T18:58:41.356Z,7.63
2023-05-09T19:01:11.365Z,7.90
2023-05-09T19:03:45.306Z,11.60
2023-05-09T19:06:13.413Z,8.27
2023-05-09T19:08:41.314Z,8.50
2023-05-09T19:11:08.096Z,10.63
2023-05-09T19:13:38.212Z,8.15
2023-05-09T19:16:05.401Z,9.10
2023-05-09T19:18:31.918Z,10.25
2023-05-09T19:20:58.923Z,9.07
2023-05-09T19:23:29.116Z,9.30
2023-05-09T19:25:55.835Z,9.95
2023-05-09T19:28:25.894Z,9.55
2023-05-09T19:30:52.524Z,10.25
2023-05-09T19:33:20.118Z,8.73
2023-05-09T19:35:46.828Z,9.23
2023-05-09T19:38:13.550Z,7.68
2023-05-09T19:40:41.120Z,8.70
2023-05-09T19:43:07.663Z,9.93
2023-05-09T19:45:34.281Z,8.57
2023-05-09T19:48:02.198Z,8.85
2023-05-09T19:50:28.852Z,6.35
2023-05-09T19:52:55.473Z,7.90
2023-05-09T19:55:22.052Z,6.65
2023-05-09T19:57:48.793Z,7.18
2023-05-09T20:00:15.777Z,9.82
2023-05-09T20:02:42.509Z,7.20
2023-05-09T20:05:09.295Z,6.63
2023-05-09T20:07:35.829Z,6.40
2023-05-09T20:10:02.434Z,5.63
2023-05-09T20:12:30.212Z,6.38
2023-05-09T20:14:57.125Z,6.28
2023-05-09T20:17:23.845Z,5.80
2023-05-09T20:19:50.797Z,6.07
2023-05-09T20:22:17.358Z,7.97
2023-05-09T20:24:43.726Z,5.93
2023-05-09T20:27:10.388Z,5.47
2023-05-09T20:29:36.945Z,5.05
2023-05-09T20:32:03.488Z,5.68
2023-05-09T20:34:30.006Z,5.25
2023-05-09T20:36:56.431Z,7.00
2023-05-09T20:39:23.264Z,5.85
2023-05-09T20:41:53.976Z,5.85
2023-05-09T20:44:20.594Z,5.70
2023-05-09T20:46:47.577Z,5.88
2023-05-09T20:49:14.637Z,7.43
2023-05-09T20:51:41.177Z,8.38
2023-05-09T20:54:07.679Z,6.30
2023-05-09T20:56:35.640Z,6.13
2023-05-09T20:59:04.079Z,6.55
2023-05-09T21:01:32.474Z,5.90
2023-05-09T21:03:59.277Z,5.78
2023-05-09T21:06:25.888Z,5.82
2023-05-09T21:08:52.352Z,5.78
2023-05-09T21:11:18.866Z,4.55
2023-05-09T21:13:45.378Z,9.63
2023-05-09T21:16:11.935Z,5.45
2023-05-09T21:18:38.559Z,5.97
2023-05-09T21:21:08.215Z,6.18
2023-05-09T21:23:35.230Z,7.03
2023-05-09T21:26:02.501Z,6.25
2023-05-09T21:28:29.582Z,5.88
2023-05-09T21:30:56.384Z,5.00
2023-05-09T21:33:23.219Z,7.38
2023-05-09T21:35:49.760Z,4.72
2023-05-09T21:38:16.456Z,4.47
2023-05-09T21:40:42.989Z,4.50
2023-05-09T21:43:09.489Z,5.88
2023-05-09T21:45:35.977Z,7.03
2023-05-09T21:48:02.609Z,5.10
2023-05-09T21:50:29.372Z,5.47
2023-05-09T21:52:56.348Z,4.28
2023-05-09T21:55:23.097Z,5.35
2023-05-09T21:57:49.544Z,4.72
2023-05-09T22:00:17.252Z,5.25
2023-05-09T22:02:44.151Z,6.57
2023-05-09T22:05:11.782Z,6.63
2023-05-09T22:07:39.013Z,6.80
2023-05-09T22:10:06.241Z,8.50
2023-05-09T22:12:33.122Z,6.70
2023-05-09T22:14:59.778Z,5.95
2023-05-09T22:17:26.442Z,6.95
2023-05-09T22:19:52.996Z,7.40
2023-05-09T22:22:19.558Z,7.35
2023-05-09T22:24:46.200Z,6.28
2023-05-09T22:27:12.732Z,5.20
2023-05-09T22:29:39.233Z,5.18
2023-05-09T22:32:07.732Z,6.15
2023-05-09T22:34:35.325Z,5.25
2023-05-09T22:37:01.870Z,6.07
2023-05-09T22:39:28.422Z,6.10
2023-05-09T22:41:54.953Z,7.18
2023-05-09T22:44:21.871Z,5.65
2023-05-09T22:46:48.666Z,6.63
2023-05-09T22:49:15.147Z,7.03
2023-05-09T22:51:42.236Z,6.15
2023-05-09T22:54:09.119Z,6.72
2023-05-09T22:56:35.647Z,6.43
2023-05-09T22:59:02.180Z,4.13
2023-05-09T23:01:28.823Z,1.83
2023-05-09T23:03:55.396Z,2.25
2023-05-09T23:06:21.889Z,3.78
2023-05-09T23:08:48.375Z,1.77
2023-05-09T23:11:14.833Z,5.00
2023-05-09T23:13:41.901Z,1.45
2023-05-09T23:16:08.332Z,1.15
2023-05-09T23:18:34.973Z,4.57
2023-05-09T23:21:01.458Z,1.52
2023-05-09T23:23:27.973Z,1.63
2023-05-09T23:25:54.435Z,1.50
2023-05-09T23:28:24.898Z,1.20
2023-05-09T23:30:53.963Z,0.90
2023-05-09T23:33:20.728Z,1.33
2023-05-09T23:35:48.124Z,2.42
2023-05-09T23:38:14.638Z,0.45
2023-05-09T23:40:45.417Z,0.30
2023-05-09T23:43:12.976Z,1.20
2023-05-09T23:45:39.557Z,0.57
2023-05-09T23:48:06.299Z,1.15
2023-05-09T23:50:32.888Z,0.85
2023-05-09T23:52:59.448Z,0.90
2023-05-09T23:55:25.863Z,0.85
2023-05-09T23:57:52.304Z,0.52
